sensor_id;sensor_type;location;lat;lon;timestamp;temperature;humidity
68943;DHT22;60852;52.190;4.422;2023-06-14T00:01:39;20.04;67.92
68943;DHT22;60852;52.190;4.422;2023-06-14T00:04:04;20.07;67.74
68943;DHT22;60852;52.190;4.422;2023-06-14T00:06:34;19.99;67.70
68943;DHT22;60852;52.190;4.422;2023-06-14T00:08:59;19.99;67.77
68943;DHT22;60852;52.190;4.422;2023-06-14T00:11:25;19.97;67.77
68943;DHT22;60852;52.190;4.422;2023-06-14T00:13:52;19.88;68.02
68943;DHT22;60852;52.190;4.422;2023-06-14T00:16:18;19.88;67.94
68943;DHT22;60852;52.190;4.422;2023-06-14T00:18:45;19.84;68.06
68943;DHT22;60852;52.190;4.422;2023-06-14T00:21:11;19.84;68.06
68943;DHT22;60852;52.190;4.422;2023-06-14T00:23:37;19.81;68.03
68943;DHT22;60852;52.190;4.422;2023-06-14T00:26:03;19.73;68.24
68943;DHT22;60852;52.190;4.422;2023-06-14T00:28:29;19.70;68.16
68943;DHT22;60852;52.190;4.422;2023-06-14T00:30:54;19.74;68.03
68943;DHT22;60852;52.190;4.422;2023-06-14T00:33:20;19.71;68.03
68943;DHT22;60852;52.190;4.422;2023-06-14T00:35:45;19.68;68.15
68943;DHT22;60852;52.190;4.422;2023-06-14T00:38:12;19.74;67.95
68943;DHT22;60852;52.190;4.422;2023-06-14T00:40:37;19.67;68.00
68943;DHT22;60852;52.190;4.422;2023-06-14T00:43:03;19.63;67.99
68943;DHT22;60852;52.190;4.422;2023-06-14T00:45:28;19.60;67.87
68943;DHT22;60852;52.190;4.422;2023-06-14T00:47:54;19.58;67.63
68943;DHT22;60852;52.190;4.422;2023-06-14T00:50:21;19.58;66.93
68943;DHT22;60852;52.190;4.422;2023-06-14T00:52:49;19.60;66.50
68943;DHT22;60852;52.190;4.422;2023-06-14T00:55:14;19.66;66.22
68943;DHT22;60852;52.190;4.422;2023-06-14T00:57:40;19.63;65.61
68943;DHT22;60852;52.190;4.422;2023-06-14T01:00:07;19.57;65.11
68943;DHT22;60852;52.190;4.422;2023-06-14T01:02:38;19.56;64.59
68943;DHT22;60852;52.190;4.422;2023-06-14T01:05:06;19.58;63.36
68943;DHT22;60852;52.190;4.422;2023-06-14T01:13:19;19.66;61.55
68943;DHT22;60852;52.190;4.422;2023-06-14T01:15:47;19.63;60.73
68943;DHT22;60852;52.190;4.422;2023-06-14T01:18:13;19.64;60.54
68943;DHT22;60852;52.190;4.422;2023-06-14T01:20:46;19.67;59.84
68943;DHT22;60852;52.190;4.422;2023-06-14T01:23:19;19.67;59.27
68943;DHT22;60852;52.190;4.422;2023-06-14T01:25:45;19.71;59.10
68943;DHT22;60852;52.190;4.422;2023-06-14T01:28:13;19.67;58.54
68943;DHT22;60852;52.190;4.422;2023-06-14T01:30:44;19.67;58.29
68943;DHT22;60852;52.190;4.422;2023-06-14T01:33:22;19.68;58.13
68943;DHT22;60852;52.190;4.422;2023-06-14T01:35:50;19.66;57.91
68943;DHT22;60852;52.190;4.422;2023-06-14T01:38:19;19.63;58.03
68943;DHT22;60852;52.190;4.422;2023-06-14T01:40:46;19.57;57.72
68943;DHT22;60852;52.190;4.422;2023-06-14T01:43:14;19.56;57.66
68943;DHT22;60852;52.190;4.422;2023-06-14T01:45:42;19.46;57.78
68943;DHT22;60852;52.190;4.422;2023-06-14T01:48:09;19.43;57.84
68943;DHT22;60852;52.190;4.422;2023-06-14T01:50:35;19.37;57.52
68943;DHT22;60852;52.190;4.422;2023-06-14T01:53:00;19.33;57.44
68943;DHT22;60852;52.190;4.422;2023-06-14T01:55:26;19.30;57.29
68943;DHT22;60852;52.190;4.422;2023-06-14T01:57:53;19.26;57.25
68943;DHT22;60852;52.190;4.422;2023-06-14T02:00:18;19.26;57.20
68943;DHT22;60852;52.190;4.422;2023-06-14T02:02:45;19.20;56.80
68943;DHT22;60852;52.190;4.422;2023-06-14T02:05:11;19.24;56.61
68943;DHT22;60852;52.190;4.422;2023-06-14T02:07:37;19.19;56.76
68943;DHT22;60852;52.190;4.422;2023-06-14T02:10:05;19.15;56.91
68943;DHT22;60852;52.190;4.422;2023-06-14T02:12:31;19.12;56.92
68943;DHT22;60852;52.190;4.422;2023-06-14T02:14:56;19.12;57.03
68943;DHT22;60852;52.190;4.422;2023-06-14T02:17:24;19.10;56.93
68943;DHT22;60852;52.190;4.422;2023-06-14T02:19:50;19.08;57.18
68943;DHT22;60852;52.190;4.422;2023-06-14T02:22:16;19.03;57.15
68943;DHT22;60852;52.190;4.422;2023-06-14T02:24:42;18.95;57.47
68943;DHT22;60852;52.190;4.422;2023-06-14T02:27:08;18.91;57.55
68943;DHT22;60852;52.190;4.422;2023-06-14T02:29:36;18.79;57.83
68943;DHT22;60852;52.190;4.422;2023-06-14T02:32:02;18.79;58.07
68943;DHT22;60852;52.190;4.422;2023-06-14T02:34:28;18.72;58.55
68943;DHT22;60852;52.190;4.422;2023-06-14T02:36:53;18.64;58.57
68943;DHT22;60852;52.190;4.422;2023-06-14T02:39:19;18.54;59.10
68943;DHT22;60852;52.190;4.422;2023-06-14T02:41:46;18.50;59.22
68943;DHT22;60852;52.190;4.422;2023-06-14T02:44:13;18.47;58.95
68943;DHT22;60852;52.190;4.422;2023-06-14T02:46:39;18.55;58.86
68943;DHT22;60852;52.190;4.422;2023-06-14T02:49:05;18.52;58.81
68943;DHT22;60852;52.190;4.422;2023-06-14T02:51:30;18.52;58.73
68943;DHT22;60852;52.190;4.422;2023-06-14T02:53:56;18.52;58.57
68943;DHT22;60852;52.190;4.422;2023-06-14T02:56:21;18.51;58.47
68943;DHT22;60852;52.190;4.422;2023-06-14T02:58:47;18.44;58.80
68943;DHT22;60852;52.190;4.422;2023-06-14T03:01:14;18.43;59.19
68943;DHT22;60852;52.190;4.422;2023-06-14T03:03:39;18.33;59.43
68943;DHT22;60852;52.190;4.422;2023-06-14T03:06:05;18.30;59.71
68943;DHT22;60852;52.190;4.422;2023-06-14T03:08:31;18.24;60.15
68943;DHT22;60852;52.190;4.422;2023-06-14T03:11:04;18.20;60.51
68943;DHT22;60852;52.190;4.422;2023-06-14T03:13:34;18.18;60.75
68943;DHT22;60852;52.190;4.422;2023-06-14T03:15:59;18.20;60.88
68943;DHT22;60852;52.190;4.422;2023-06-14T03:18:29;18.14;61.14
68943;DHT22;60852;52.190;4.422;2023-06-14T03:20:56;18.10;61.43
68943;DHT22;60852;52.190;4.422;2023-06-14T03:23:24;18.01;61.87
68943;DHT22;60852;52.190;4.422;2023-06-14T03:25:50;17.90;62.19
68943;DHT22;60852;52.190;4.422;2023-06-14T03:28:16;17.90;62.34
68943;DHT22;60852;52.190;4.422;2023-06-14T03:30:42;17.87;62.32
68943;DHT22;60852;52.190;4.422;2023-06-14T03:33:08;17.82;62.33
68943;DHT22;60852;52.190;4.422;2023-06-14T03:35:33;17.78;62.28
68943;DHT22;60852;52.190;4.422;2023-06-14T03:37:59;17.75;62.33
68943;DHT22;60852;52.190;4.422;2023-06-14T03:40:24;17.80;62.33
68943;DHT22;60852;52.190;4.422;2023-06-14T03:42:54;17.78;62.19
68943;DHT22;60852;52.190;4.422;2023-06-14T03:45:19;17.73;62.21
68943;DHT22;60852;52.190;4.422;2023-06-14T03:47:45;17.73;62.13
68943;DHT22;60852;52.190;4.422;2023-06-14T03:50:11;17.73;62.24
68943;DHT22;60852;52.190;4.422;2023-06-14T03:52:37;17.75;61.92
68943;DHT22;60852;52.190;4.422;2023-06-14T03:55:03;17.75;61.80
68943;DHT22;60852;52.190;4.422;2023-06-14T03:57:30;17.73;61.57
68943;DHT22;60852;52.190;4.422;2023-06-14T03:59:56;17.72;61.57
68943;DHT22;60852;52.190;4.422;2023-06-14T04:02:21;17.72;61.45
68943;DHT22;60852;52.190;4.422;2023-06-14T04:04:49;17.73;61.20
68943;DHT22;60852;52.190;4.422;2023-06-14T04:07:17;17.78;60.82
68943;DHT22;60852;52.190;4.422;2023-06-14T04:09:46;17.82;60.67
68943;DHT22;60852;52.190;4.422;2023-06-14T04:12:11;17.86;60.41
68943;DHT22;60852;52.190;4.422;2023-06-14T04:14:39;17.97;59.81
68943;DHT22;60852;52.190;4.422;2023-06-14T04:17:05;18.06;59.70
68943;DHT22;60852;52.190;4.422;2023-06-14T04:19:30;18.41;58.66
68943;DHT22;60852;52.190;4.422;2023-06-14T04:21:56;19.31;55.79
68943;DHT22;60852;52.190;4.422;2023-06-14T04:24:21;19.91;54.08
68943;DHT22;60852;52.190;4.422;2023-06-14T04:26:49;20.18;53.15
68943;DHT22;60852;52.190;4.422;2023-06-14T04:29:15;19.98;53.69
68943;DHT22;60852;52.190;4.422;2023-06-14T04:31:45;19.40;55.13
68943;DHT22;60852;52.190;4.422;2023-06-14T04:34:14;18.92;56.57
68943;DHT22;60852;52.190;4.422;2023-06-14T04:36:42;18.65;57.38
68943;DHT22;60852;52.190;4.422;2023-06-14T04:39:15;18.62;57.49
68943;DHT22;60852;52.190;4.422;2023-06-14T04:41:43;18.52;57.85
68943;DHT22;60852;52.190;4.422;2023-06-14T04:44:08;18.51;57.76
68943;DHT22;60852;52.190;4.422;2023-06-14T04:46:35;18.54;57.73
68943;DHT22;60852;52.190;4.422;2023-06-14T04:49:14;18.75;57.20
68943;DHT22;60852;52.190;4.422;2023-06-14T04:51:44;18.79;57.44
68943;DHT22;60852;52.190;4.422;2023-06-14T04:54:10;18.87;56.89
68943;DHT22;60852;52.190;4.422;2023-06-14T04:56:42;18.84;56.44
68943;DHT22;60852;52.190;4.422;2023-06-14T04:59:08;18.82;56.77
68943;DHT22;60852;52.190;4.422;2023-06-14T05:01:34;18.78;56.60
68943;DHT22;60852;52.190;4.422;2023-06-14T05:04:01;18.79;56.76
68943;DHT22;60852;52.190;4.422;2023-06-14T05:06:26;19.03;56.23
68943;DHT22;60852;52.190;4.422;2023-06-14T05:08:53;19.57;54.47
68943;DHT22;60852;52.190;4.422;2023-06-14T05:11:19;20.08;52.95
68943;DHT22;60852;52.190;4.422;2023-06-14T05:13:44;20.09;52.47
68943;DHT22;60852;52.190;4.422;2023-06-14T05:16:11;20.81;51.23
68943;DHT22;60852;52.190;4.422;2023-06-14T05:18:37;21.58;49.40
68943;DHT22;60852;52.190;4.422;2023-06-14T05:21:04;21.99;47.93
68943;DHT22;60852;52.190;4.422;2023-06-14T05:23:32;22.04;47.38
68943;DHT22;60852;52.190;4.422;2023-06-14T05:25:58;21.79;48.00
68943;DHT22;60852;52.190;4.422;2023-06-14T05:28:24;21.82;47.84
68943;DHT22;60852;52.190;4.422;2023-06-14T05:30:49;21.96;47.54
68943;DHT22;60852;52.190;4.422;2023-06-14T05:33:15;22.27;47.16
68943;DHT22;60852;52.190;4.422;2023-06-14T05:35:41;22.50;46.52
68943;DHT22;60852;52.190;4.422;2023-06-14T05:38:06;22.87;45.79
68943;DHT22;60852;52.190;4.422;2023-06-14T05:40:33;23.08;45.55
68943;DHT22;60852;52.190;4.422;2023-06-14T05:42:59;23.52;43.76
68943;DHT22;60852;52.190;4.422;2023-06-14T05:45:24;22.91;45.36
68943;DHT22;60852;52.190;4.422;2023-06-14T05:47:50;23.49;44.27
68943;DHT22;60852;52.190;4.422;2023-06-14T05:50:16;23.46;43.94
68943;DHT22;60852;52.190;4.422;2023-06-14T05:52:41;23.94;43.64
68943;DHT22;60852;52.190;4.422;2023-06-14T05:55:07;24.15;42.94
68943;DHT22;60852;52.190;4.422;2023-06-14T05:57:33;24.65;41.85
68943;DHT22;60852;52.190;4.422;2023-06-14T05:59:58;24.76;41.13
68943;DHT22;60852;52.190;4.422;2023-06-14T06:02:24;24.12;42.66
68943;DHT22;60852;52.190;4.422;2023-06-14T06:04:49;24.04;41.74
68943;DHT22;60852;52.190;4.422;2023-06-14T06:07:15;23.70;42.90
68943;DHT22;60852;52.190;4.422;2023-06-14T06:09:40;23.33;43.26
68943;DHT22;60852;52.190;4.422;2023-06-14T06:12:06;23.57;43.21
68943;DHT22;60852;52.190;4.422;2023-06-14T06:14:32;23.56;42.60
68943;DHT22;60852;52.190;4.422;2023-06-14T06:16:58;23.98;41.62
68943;DHT22;60852;52.190;4.422;2023-06-14T06:19:24;23.59;42.32
68943;DHT22;60852;52.190;4.422;2023-06-14T06:21:49;23.63;42.75
68943;DHT22;60852;52.190;4.422;2023-06-14T06:24:15;23.82;42.23
68943;DHT22;60852;52.190;4.422;2023-06-14T06:26:40;23.61;42.43
68943;DHT22;60852;52.190;4.422;2023-06-14T06:29:05;22.96;43.38
68943;DHT22;60852;52.190;4.422;2023-06-14T06:31:31;22.16;45.23
68943;DHT22;60852;52.190;4.422;2023-06-14T06:33:57;21.59;46.67
68943;DHT22;60852;52.190;4.422;2023-06-14T06:36:22;21.63;46.73
68943;DHT22;60852;52.190;4.422;2023-06-14T06:38:48;21.63;47.05
68943;DHT22;60852;52.190;4.422;2023-06-14T06:41:14;21.79;47.06
68943;DHT22;60852;52.190;4.422;2023-06-14T06:43:39;21.55;47.16
68943;DHT22;60852;52.190;4.422;2023-06-14T06:46:05;21.23;48.15
68943;DHT22;60852;52.190;4.422;2023-06-14T06:48:31;21.45;47.86
68943;DHT22;60852;52.190;4.422;2023-06-14T06:50:56;21.65;47.80
68943;DHT22;60852;52.190;4.422;2023-06-14T06:53:22;21.82;46.11
68943;DHT22;60852;52.190;4.422;2023-06-14T06:55:48;21.88;46.38
68943;DHT22;60852;52.190;4.422;2023-06-14T06:58:13;21.82;46.70
68943;DHT22;60852;52.190;4.422;2023-06-14T07:00:39;21.55;47.44
68943;DHT22;60852;52.190;4.422;2023-06-14T07:03:05;21.24;47.62
68943;DHT22;60852;52.190;4.422;2023-06-14T07:05:31;20.98;48.87
68943;DHT22;60852;52.190;4.422;2023-06-14T07:07:57;21.03;49.41
68943;DHT22;60852;52.190;4.422;2023-06-14T07:10:23;21.30;48.59
68943;DHT22;60852;52.190;4.422;2023-06-14T07:12:50;21.35;48.32
68943;DHT22;60852;52.190;4.422;2023-06-14T07:15:16;21.44;48.43
68943;DHT22;60852;52.190;4.422;2023-06-14T07:17:41;21.51;48.48
68943;DHT22;60852;52.190;4.422;2023-06-14T07:20:08;21.56;47.74
68943;DHT22;60852;52.190;4.422;2023-06-14T07:22:38;21.66;48.23
68943;DHT22;60852;52.190;4.422;2023-06-14T07:25:06;21.75;47.74
68943;DHT22;60852;52.190;4.422;2023-06-14T07:27:32;21.41;48.58
68943;DHT22;60852;52.190;4.422;2023-06-14T07:29:57;21.61;48.10
68943;DHT22;60852;52.190;4.422;2023-06-14T07:32:23;21.65;47.49
68943;DHT22;60852;52.190;4.422;2023-06-14T07:34:48;21.75;47.88
68943;DHT22;60852;52.190;4.422;2023-06-14T07:37:13;22.02;47.19
68943;DHT22;60852;52.190;4.422;2023-06-14T07:39:39;22.13;46.74
68943;DHT22;60852;52.190;4.422;2023-06-14T07:42:05;22.21;46.68
68943;DHT22;60852;52.190;4.422;2023-06-14T07:44:30;22.27;46.45
68943;DHT22;60852;52.190;4.422;2023-06-14T07:46:58;22.02;47.34
68943;DHT22;60852;52.190;4.422;2023-06-14T07:49:25;21.90;48.39
68943;DHT22;60852;52.190;4.422;2023-06-14T07:51:51;22.04;48.23
68943;DHT22;60852;52.190;4.422;2023-06-14T07:54:16;21.78;49.07
68943;DHT22;60852;52.190;4.422;2023-06-14T07:56:42;21.95;49.02
68943;DHT22;60852;52.190;4.422;2023-06-14T07:59:08;22.07;47.83
68943;DHT22;60852;52.190;4.422;2023-06-14T08:01:34;21.96;48.03
68943;DHT22;60852;52.190;4.422;2023-06-14T08:04:00;21.88;47.57
68943;DHT22;60852;52.190;4.422;2023-06-14T08:06:26;22.03;47.04
68943;DHT22;60852;52.190;4.422;2023-06-14T08:08:51;22.18;46.91
68943;DHT22;60852;52.190;4.422;2023-06-14T08:11:17;22.37;47.37
68943;DHT22;60852;52.190;4.422;2023-06-14T08:13:42;22.61;46.00
68943;DHT22;60852;52.190;4.422;2023-06-14T08:16:08;22.25;46.18
68943;DHT22;60852;52.190;4.422;2023-06-14T08:18:33;22.04;47.83
68943;DHT22;60852;52.190;4.422;2023-06-14T08:20:59;22.07;46.98
68943;DHT22;60852;52.190;4.422;2023-06-14T08:23:24;22.06;46.80
68943;DHT22;60852;52.190;4.422;2023-06-14T08:25:51;22.27;46.50
68943;DHT22;60852;52.190;4.422;2023-06-14T08:28:16;22.14;46.46
68943;DHT22;60852;52.190;4.422;2023-06-14T08:30:42;22.10;46.33
68943;DHT22;60852;52.190;4.422;2023-06-14T08:33:08;22.17;46.38
68943;DHT22;60852;52.190;4.422;2023-06-14T08:35:33;22.27;46.10
68943;DHT22;60852;52.190;4.422;2023-06-14T08:38:02;22.45;46.18
68943;DHT22;60852;52.190;4.422;2023-06-14T08:40:30;22.62;44.85
68943;DHT22;60852;52.190;4.422;2023-06-14T08:42:56;22.76;44.84
68943;DHT22;60852;52.190;4.422;2023-06-14T08:45:23;22.82;44.99
68943;DHT22;60852;52.190;4.422;2023-06-14T08:47:50;22.72;44.71
68943;DHT22;60852;52.190;4.422;2023-06-14T08:50:24;22.67;45.35
68943;DHT22;60852;52.190;4.422;2023-06-14T08:52:58;22.87;44.93
68943;DHT22;60852;52.190;4.422;2023-06-14T08:55:29;23.11;44.68
68943;DHT22;60852;52.190;4.422;2023-06-14T08:57:56;23.36;43.81
68943;DHT22;60852;52.190;4.422;2023-06-14T09:00:27;23.57;43.50
68943;DHT22;60852;52.190;4.422;2023-06-14T09:02:53;23.56;43.31
68943;DHT22;60852;52.190;4.422;2023-06-14T09:05:26;23.45;43.78
68943;DHT22;60852;52.190;4.422;2023-06-14T09:07:52;23.59;43.59
68943;DHT22;60852;52.190;4.422;2023-06-14T09:10:21;23.63;42.41
68943;DHT22;60852;52.190;4.422;2023-06-14T09:12:46;23.77;42.24
68943;DHT22;60852;52.190;4.422;2023-06-14T09:15:13;23.71;42.31
68943;DHT22;60852;52.190;4.422;2023-06-14T09:17:39;23.66;42.17
68943;DHT22;60852;52.190;4.422;2023-06-14T09:20:06;23.77;42.15
68943;DHT22;60852;52.190;4.422;2023-06-14T09:22:35;24.07;41.87
68943;DHT22;60852;52.190;4.422;2023-06-14T09:25:01;23.90;40.16
68943;DHT22;60852;52.190;4.422;2023-06-14T09:27:27;23.82;41.61
68943;DHT22;60852;52.190;4.422;2023-06-14T09:29:54;24.05;40.51
68943;DHT22;60852;52.190;4.422;2023-06-14T09:32:21;24.08;40.08
68943;DHT22;60852;52.190;4.422;2023-06-14T09:34:47;24.04;40.28
68943;DHT22;60852;52.190;4.422;2023-06-14T09:37:13;23.90;40.73
68943;DHT22;60852;52.190;4.422;2023-06-14T09:39:51;24.19;40.16
68943;DHT22;60852;52.190;4.422;2023-06-14T09:42:18;24.45;39.35
68943;DHT22;60852;52.190;4.422;2023-06-14T09:44:48;24.63;37.56
68943;DHT22;60852;52.190;4.422;2023-06-14T09:47:15;24.62;38.15
68943;DHT22;60852;52.190;4.422;2023-06-14T09:49:41;24.91;36.97
68943;DHT22;60852;52.190;4.422;2023-06-14T09:52:12;25.28;36.47
68943;DHT22;60852;52.190;4.422;2023-06-14T09:54:42;26.13;34.70
68943;DHT22;60852;52.190;4.422;2023-06-14T09:57:11;26.54;34.19
68943;DHT22;60852;52.190;4.422;2023-06-14T09:59:42;26.65;33.20
68943;DHT22;60852;52.190;4.422;2023-06-14T10:02:13;26.87;32.81
68943;DHT22;60852;52.190;4.422;2023-06-14T10:04:46;27.12;32.66
68943;DHT22;60852;52.190;4.422;2023-06-14T10:07:19;27.45;32.07
68943;DHT22;60852;52.190;4.422;2023-06-14T10:09:46;27.54;32.62
68943;DHT22;60852;52.190;4.422;2023-06-14T10:12:17;27.63;31.46
68943;DHT22;60852;52.190;4.422;2023-06-14T10:14:51;28.20;31.27
68943;DHT22;60852;52.190;4.422;2023-06-14T10:20:11;28.71;29.43
68943;DHT22;60852;52.190;4.422;2023-06-14T10:22:49;28.98;29.08
68943;DHT22;60852;52.190;4.422;2023-06-14T10:25:36;28.84;29.28
68943;DHT22;60852;52.190;4.422;2023-06-14T10:28:22;28.27;29.86
68943;DHT22;60852;52.190;4.422;2023-06-14T10:33:34;27.79;30.76
68943;DHT22;60852;52.190;4.422;2023-06-14T10:36:07;27.21;30.40
68943;DHT22;60852;52.190;4.422;2023-06-14T10:38:33;27.14;30.04
68943;DHT22;60852;52.190;4.422;2023-06-14T10:41:01;26.84;31.10
68943;DHT22;60852;52.190;4.422;2023-06-14T10:43:27;26.75;30.19
68943;DHT22;60852;52.190;4.422;2023-06-14T10:48:41;26.98;30.97
68943;DHT22;60852;52.190;4.422;2023-06-14T10:51:18;27.35;30.02
68943;DHT22;60852;52.190;4.422;2023-06-14T10:53:49;26.58;31.36
68943;DHT22;60852;52.190;4.422;2023-06-14T10:56:47;26.46;31.02
68943;DHT22;60852;52.190;4.422;2023-06-14T10:59:14;26.61;30.97
68943;DHT22;60852;52.190;4.422;2023-06-14T11:04:47;26.92;30.53
68943;DHT22;60852;52.190;4.422;2023-06-14T11:12:55;27.45;31.27
68943;DHT22;60852;52.190;4.422;2023-06-14T11:15:28;27.67;30.77
68943;DHT22;60852;52.190;4.422;2023-06-14T11:17:53;27.82;30.58
68943;DHT22;60852;52.190;4.422;2023-06-14T11:20:25;27.83;30.22
68943;DHT22;60852;52.190;4.422;2023-06-14T11:22:52;27.86;31.09
68943;DHT22;60852;52.190;4.422;2023-06-14T11:25:18;28.04;30.40
68943;DHT22;60852;52.190;4.422;2023-06-14T11:27:44;28.00;30.09
68943;DHT22;60852;52.190;4.422;2023-06-14T11:30:11;27.70;31.39
68943;DHT22;60852;52.190;4.422;2023-06-14T11:32:37;27.71;30.99
68943;DHT22;60852;52.190;4.422;2023-06-14T11:35:04;27.33;30.87
68943;DHT22;60852;52.190;4.422;2023-06-14T11:37:31;26.73;32.26
68943;DHT22;60852;52.190;4.422;2023-06-14T11:40:01;26.67;31.51
68943;DHT22;60852;52.190;4.422;2023-06-14T11:42:27;26.92;30.53
68943;DHT22;60852;52.190;4.422;2023-06-14T11:44:54;26.70;30.74
68943;DHT22;60852;52.190;4.422;2023-06-14T11:47:20;26.47;31.07
68943;DHT22;60852;52.190;4.422;2023-06-14T11:49:47;26.09;31.13
68943;DHT22;60852;52.190;4.422;2023-06-14T11:52:13;25.69;31.83
68943;DHT22;60852;52.190;4.422;2023-06-14T11:54:39;26.13;31.19
68943;DHT22;60852;52.190;4.422;2023-06-14T11:57:07;26.58;30.77
68943;DHT22;60852;52.190;4.422;2023-06-14T11:59:38;26.67;31.47
68943;DHT22;60852;52.190;4.422;2023-06-14T12:02:05;27.15;30.97
68943;DHT22;60852;52.190;4.422;2023-06-14T12:04:32;27.49;30.15
68943;DHT22;60852;52.190;4.422;2023-06-14T12:07:08;27.79;29.58
68943;DHT22;60852;52.190;4.422;2023-06-14T12:09:34;27.50;29.86
68943;DHT22;60852;52.190;4.422;2023-06-14T12:12:00;27.12;31.20
68943;DHT22;60852;52.190;4.422;2023-06-14T12:14:32;27.28;31.14
68943;DHT22;60852;52.190;4.422;2023-06-14T12:17:05;27.60;31.16
68943;DHT22;60852;52.190;4.422;2023-06-14T12:19:32;27.08;30.84
68943;DHT22;60852;52.190;4.422;2023-06-14T12:21:59;26.90;30.98
68943;DHT22;60852;52.190;4.422;2023-06-14T12:24:30;26.32;32.04
68943;DHT22;60852;52.190;4.422;2023-06-14T12:26:58;26.10;32.65
68943;DHT22;60852;52.190;4.422;2023-06-14T12:29:25;26.17;32.78
68943;DHT22;60852;52.190;4.422;2023-06-14T12:31:51;26.46;32.79
68943;DHT22;60852;52.190;4.422;2023-06-14T12:34:20;26.58;31.50
68943;DHT22;60852;52.190;4.422;2023-06-14T12:36:45;26.78;30.77
68943;DHT22;60852;52.190;4.422;2023-06-14T12:39:12;26.83;31.15
68943;DHT22;60852;52.190;4.422;2023-06-14T12:41:37;26.87;30.69
68943;DHT22;60852;52.190;4.422;2023-06-14T12:44:03;26.98;31.91
68943;DHT22;60852;52.190;4.422;2023-06-14T12:46:32;27.04;30.69
68943;DHT22;60852;52.190;4.422;2023-06-14T12:48:57;26.67;31.61
68943;DHT22;60852;52.190;4.422;2023-06-14T12:51:23;26.53;31.71
68943;DHT22;60852;52.190;4.422;2023-06-14T12:53:49;26.33;32.61
68943;DHT22;60852;52.190;4.422;2023-06-14T12:56:14;26.32;32.55
68943;DHT22;60852;52.190;4.422;2023-06-14T12:58:41;26.54;32.94
68943;DHT22;60852;52.190;4.422;2023-06-14T13:01:07;26.87;31.38
68943;DHT22;60852;52.190;4.422;2023-06-14T13:03:33;26.90;31.93
68943;DHT22;60852;52.190;4.422;2023-06-14T13:06:00;26.80;32.91
68943;DHT22;60852;52.190;4.422;2023-06-14T13:08:26;26.70;32.70
68943;DHT22;60852;52.190;4.422;2023-06-14T13:10:53;26.74;31.08
68943;DHT22;60852;52.190;4.422;2023-06-14T13:13:18;26.95;31.43
68943;DHT22;60852;52.190;4.422;2023-06-14T13:15:44;27.25;31.76
68943;DHT22;60852;52.190;4.422;2023-06-14T13:18:11;27.43;31.76
68943;DHT22;60852;52.190;4.422;2023-06-14T13:20:38;27.39;32.96
68943;DHT22;60852;52.190;4.422;2023-06-14T13:23:04;27.29;32.18
68943;DHT22;60852;52.190;4.422;2023-06-14T13:25:33;26.73;32.79
68943;DHT22;60852;52.190;4.422;2023-06-14T13:27:58;26.27;33.48
68943;DHT22;60852;52.190;4.422;2023-06-14T13:30:24;26.17;34.33
68943;DHT22;60852;52.190;4.422;2023-06-14T13:32:49;26.20;34.07
68943;DHT22;60852;52.190;4.422;2023-06-14T13:35:17;26.10;34.29
68943;DHT22;60852;52.190;4.422;2023-06-14T13:37:43;26.07;34.33
68943;DHT22;60852;52.190;4.422;2023-06-14T13:40:08;26.05;34.80
68943;DHT22;60852;52.190;4.422;2023-06-14T13:42:34;26.05;34.78
68943;DHT22;60852;52.190;4.422;2023-06-14T13:45:01;26.07;34.92
68943;DHT22;60852;52.190;4.422;2023-06-14T13:47:27;26.20;34.22
68943;DHT22;60852;52.190;4.422;2023-06-14T13:49:52;26.37;33.65
68943;DHT22;60852;52.190;4.422;2023-06-14T13:52:18;26.47;33.44
68943;DHT22;60852;52.190;4.422;2023-06-14T13:54:43;26.43;33.93
68943;DHT22;60852;52.190;4.422;2023-06-14T13:57:09;26.51;34.74
68943;DHT22;60852;52.190;4.422;2023-06-14T13:59:38;26.84;33.11
68943;DHT22;60852;52.190;4.422;2023-06-14T14:02:04;26.51;33.56
68943;DHT22;60852;52.190;4.422;2023-06-14T14:04:31;26.37;33.66
68943;DHT22;60852;52.190;4.422;2023-06-14T14:06:56;26.36;33.92
68943;DHT22;60852;52.190;4.422;2023-06-14T14:09:22;26.29;33.29
68943;DHT22;60852;52.190;4.422;2023-06-14T14:11:47;26.29;33.59
68943;DHT22;60852;52.190;4.422;2023-06-14T14:14:14;26.53;33.23
68943;DHT22;60852;52.190;4.422;2023-06-14T14:16:40;26.61;33.11
68943;DHT22;60852;52.190;4.422;2023-06-14T14:19:05;26.43;33.69
68943;DHT22;60852;52.190;4.422;2023-06-14T14:21:32;26.46;33.28
68943;DHT22;60852;52.190;4.422;2023-06-14T14:23:58;26.37;33.30
68943;DHT22;60852;52.190;4.422;2023-06-14T14:26:23;26.51;33.05
68943;DHT22;60852;52.190;4.422;2023-06-14T14:28:50;26.30;33.67
68943;DHT22;60852;52.190;4.422;2023-06-14T14:31:16;26.09;33.42
68943;DHT22;60852;52.190;4.422;2023-06-14T14:33:42;26.03;33.79
68943;DHT22;60852;52.190;4.422;2023-06-14T14:36:07;26.16;33.17
68943;DHT22;60852;52.190;4.422;2023-06-14T14:38:33;26.12;33.96
68943;DHT22;60852;52.190;4.422;2023-06-14T14:40:59;26.20;33.67
68943;DHT22;60852;52.190;4.422;2023-06-14T14:43:24;26.20;33.63
68943;DHT22;60852;52.190;4.422;2023-06-14T14:45:50;26.17;34.19
68943;DHT22;60852;52.190;4.422;2023-06-14T14:48:15;26.40;34.02
68943;DHT22;60852;52.190;4.422;2023-06-14T14:50:41;26.40;33.19
68943;DHT22;60852;52.190;4.422;2023-06-14T14:53:06;26.17;33.73
68943;DHT22;60852;52.190;4.422;2023-06-14T14:55:32;26.19;32.91
68943;DHT22;60852;52.190;4.422;2023-06-14T14:58:01;26.35;31.64
68943;DHT22;60852;52.190;4.422;2023-06-14T15:00:28;26.40;31.27
68943;DHT22;60852;52.190;4.422;2023-06-14T15:02:54;26.70;31.14
68943;DHT22;60852;52.190;4.422;2023-06-14T15:05:19;26.35;32.03
68943;DHT22;60852;52.190;4.422;2023-06-14T15:07:45;26.47;31.94
68943;DHT22;60852;52.190;4.422;2023-06-14T15:10:11;26.70;31.80
68943;DHT22;60852;52.190;4.422;2023-06-14T15:12:37;26.84;31.82
68943;DHT22;60852;52.190;4.422;2023-06-14T15:15:03;26.39;32.93
68943;DHT22;60852;52.190;4.422;2023-06-14T15:17:29;26.22;31.39
68943;DHT22;60852;52.190;4.422;2023-06-14T15:19:55;26.36;30.56
68943;DHT22;60852;52.190;4.422;2023-06-14T15:22:20;26.39;31.57
68943;DHT22;60852;52.190;4.422;2023-06-14T15:24:46;26.43;31.43
68943;DHT22;60852;52.190;4.422;2023-06-14T15:27:12;26.57;31.34
68943;DHT22;60852;52.190;4.422;2023-06-14T15:29:41;26.90;30.94
68943;DHT22;60852;52.190;4.422;2023-06-14T15:32:07;27.05;30.09
68943;DHT22;60852;52.190;4.422;2023-06-14T15:34:33;27.09;30.09
68943;DHT22;60852;52.190;4.422;2023-06-14T15:36:59;27.26;29.76
68943;DHT22;60852;52.190;4.422;2023-06-14T15:39:25;27.22;29.82
68943;DHT22;60852;52.190;4.422;2023-06-14T15:41:52;27.11;29.25
68943;DHT22;60852;52.190;4.422;2023-06-14T15:44:17;27.09;29.26
68943;DHT22;60852;52.190;4.422;2023-06-14T15:46:43;26.71;29.37
68943;DHT22;60852;52.190;4.422;2023-06-14T15:49:09;26.74;30.00
68943;DHT22;60852;52.190;4.422;2023-06-14T15:51:36;26.47;30.69